createdAt,value
2022-08-28T00:00:45.147Z,24.46
2022-08-28T00:03:15.602Z,24.63
2022-08-28T00:05:46.355Z,24.67
2022-08-28T00:08:17.389Z,24.59
2022-08-28T00:10:46.840Z,24.42
2022-08-28T00:13:19.993Z,24.28
2022-08-28T00:15:51.710Z,24.11
2022-08-28T00:18:20.021Z,24.08
2022-08-28T00:20:49.999Z,24.11
2022-08-28T00:23:18.402Z,24.42
2022-08-28T00:25:47.620Z,24.71
2022-08-28T00:28:23.920Z,24.65
2022-08-28T00:30:57.538Z,24.26
2022-08-28T00:33:35.923Z,24.29
2022-08-28T00:36:05.976Z,24.23
2022-08-28T00:38:34.167Z,24.10
2022-08-28T00:41:05.048Z,24.20
2022-08-28T00:43:38.749Z,24.08
2022-08-28T00:46:18.730Z,23.96
2022-08-28T00:48:48.278Z,24.13
2022-08-28T00:51:37.403Z,24.18
2022-08-28T00:54:08.888Z,24.02
2022-08-28T00:56:40.059Z,24.08
2022-08-28T00:59:18.850Z,24.46
2022-08-28T01:01:48.771Z,24.42
2022-08-28T01:04:20.373Z,24.28
2022-08-28T01:06:54.085Z,24.70
2022-08-28T01:09:27.160Z,24.84
2022-08-28T01:12:02.149Z,24.64
2022-08-28T01:14:36.594Z,24.26
2022-08-28T01:17:07.318Z,24.14
2022-08-28T01:19:41.807Z,24.04
2022-08-28T01:22:49.850Z,24.15
2022-08-28T01:25:21.615Z,23.96
2022-08-28T01:27:52.548Z,23.92
2022-08-28T01:30:28.705Z,24.14
2022-08-28T01:32:58.873Z,24.63
2022-08-28T01:35:40.441Z,24.62
2022-08-28T01:38:08.847Z,24.60
2022-08-28T01:40:43.020Z,24.13
2022-08-28T01:43:21.723Z,23.95
2022-08-28T01:45:56.209Z,23.83
2022-08-28T01:48:26.062Z,24.04
2022-08-28T01:50:56.235Z,24.12
2022-08-28T01:53:32.503Z,24.30
2022-08-28T01:56:09.848Z,24.21
2022-08-28T01:58:41.976Z,24.01
2022-08-28T02:01:16.147Z,23.94
2022-08-28T02:03:45.415Z,23.92
2022-08-28T02:06:16.966Z,23.89
2022-08-28T02:08:46.980Z,23.87
2022-08-28T02:11:16.614Z,23.89
2022-08-28T02:13:44.964Z,23.83
2022-08-28T02:16:14.403Z,23.82
2022-08-28T02:18:42.887Z,23.85
2022-08-28T02:21:13.075Z,23.78
2022-08-28T02:23:43.665Z,23.83
2022-08-28T02:26:16.554Z,23.74
2022-08-28T02:28:45.871Z,23.57
2022-08-28T02:31:14.657Z,23.52
2022-08-28T02:33:45.110Z,23.52
2022-08-28T02:36:15.681Z,23.54
2022-08-28T02:38:46.070Z,23.47
2022-08-28T02:41:14.280Z,23.59
2022-08-28T02:43:43.010Z,23.64
2022-08-28T02:46:12.107Z,23.66
2022-08-28T02:48:40.732Z,23.61
2022-08-28T02:51:13.424Z,23.72
2022-08-28T02:53:43.174Z,23.76
2022-08-28T02:56:12.059Z,23.62
2022-08-28T02:58:41.231Z,23.74
2022-08-28T03:01:11.525Z,23.70
2022-08-28T03:03:41.608Z,23.79
2022-08-28T03:06:12.823Z,24.26
2022-08-28T03:08:44.883Z,24.29
2022-08-28T03:11:13.938Z,23.98
2022-08-28T03:13:42.647Z,23.89
2022-08-28T03:16:14.230Z,24.17
2022-08-28T03:18:42.933Z,24.28
2022-08-28T03:21:12.762Z,24.34
2022-08-28T03:23:40.912Z,24.01
2022-08-28T03:26:16.770Z,23.86
2022-08-28T03:28:51.174Z,23.72
2022-08-28T03:31:24.103Z,23.66
2022-08-28T03:33:53.671Z,23.68
2022-08-28T03:36:28.905Z,23.60
2022-08-28T03:39:00.829Z,23.67
2022-08-28T03:41:31.602Z,23.67
2022-08-28T03:44:04.059Z,23.56
2022-08-28T03:46:34.817Z,23.58
2022-08-28T03:49:04.425Z,23.52
2022-08-28T03:51:34.685Z,23.61
2022-08-28T03:54:04.836Z,23.55
2022-08-28T03:56:34.074Z,23.83
2022-08-28T03:59:05.999Z,23.94
2022-08-28T04:01:35.208Z,24.26
2022-08-28T04:04:04.751Z,24.56
2022-08-28T04:06:33.049Z,24.57
2022-08-28T04:09:05.793Z,24.38
2022-08-28T04:11:45.825Z,24.24
2022-08-28T04:14:14.659Z,24.41
2022-08-28T04:16:43.332Z,24.53
2022-08-28T04:19:12.546Z,24.75
2022-08-28T04:21:40.907Z,24.97
2022-08-28T04:24:10.430Z,25.05
2022-08-28T04:26:55.723Z,25.05
2022-08-28T04:29:24.017Z,24.78
2022-08-28T04:31:53.239Z,24.67
2022-08-28T04:34:24.407Z,25.02
2022-08-28T04:36:55.914Z,25.02
2022-08-28T04:39:24.087Z,25.09
2022-08-28T04:41:55.011Z,25.12
2022-08-28T04:44:23.543Z,25.09
2022-08-28T04:46:54.907Z,25.18
2022-08-28T04:49:29.042Z,25.08
2022-08-28T04:51:58.973Z,24.97
2022-08-28T04:54:29.161Z,25.07
2022-08-28T04:57:00.003Z,25.01
2022-08-28T04:59:35.669Z,24.96
2022-08-28T05:02:12.198Z,24.88
2022-08-28T05:04:40.361Z,24.92
2022-08-28T05:07:09.566Z,25.09
2022-08-28T05:09:37.325Z,25.16
2022-08-28T05:12:06.219Z,25.10
2022-08-28T05:14:37.206Z,25.36
2022-08-28T05:17:07.807Z,25.44
2022-08-28T05:19:44.459Z,25.38
2022-08-28T05:22:12.903Z,25.42
2022-08-28T05:24:42.190Z,25.57
2022-08-28T05:27:10.977Z,25.61
2022-08-28T05:29:40.059Z,25.72
2022-08-28T05:32:08.253Z,25.82
2022-08-28T05:34:37.043Z,25.88
2022-08-28T05:37:09.100Z,25.98
2022-08-28T05:39:39.472Z,25.74
2022-08-28T05:42:08.725Z,25.88
2022-08-28T05:44:41.594Z,26.09
2022-08-28T05:47:13.843Z,26.17
2022-08-28T05:49:43.235Z,26.21
2022-08-28T05:52:22.551Z,26.27
2022-08-28T05:54:56.514Z,26.38
2022-08-28T05:57:25.829Z,26.35
2022-08-28T05:59:56.916Z,26.39
2022-08-28T06:02:30.589Z,26.42
2022-08-28T06:05:00.028Z,26.58
2022-08-28T06:07:29.001Z,26.61
2022-08-28T06:09:58.207Z,26.73
2022-08-28T06:12:30.546Z,26.69
2022-08-28T06:15:01.085Z,26.76
2022-08-28T06:17:32.571Z,26.76
2022-08-28T06:20:01.386Z,26.82
2022-08-28T06:22:31.200Z,26.81
2022-08-28T06:25:00.194Z,26.85
2022-08-28T06:27:31.578Z,26.93
2022-08-28T06:30:04.557Z,27.08
2022-08-28T06:32:33.780Z,27.13
2022-08-28T06:35:02.012Z,27.17
2022-08-28T06:37:31.571Z,27.27
2022-08-28T06:40:03.848Z,27.36
2022-08-28T06:42:32.060Z,27.53
2022-08-28T06:45:01.368Z,27.53
2022-08-28T06:47:30.101Z,27.58
2022-08-28T06:49:59.275Z,27.55
2022-08-28T06:52:28.491Z,27.58
2022-08-28T06:54:58.411Z,27.76
2022-08-28T06:57:27.782Z,27.90
2022-08-28T06:59:58.073Z,28.10
2022-08-28T07:02:28.201Z,28.14
2022-08-28T07:04:58.095Z,28.27
2022-08-28T07:07:31.530Z,28.31
2022-08-28T07:10:01.969Z,28.40
2022-08-28T07:12:31.237Z,28.50
2022-08-28T07:15:01.899Z,28.56
2022-08-28T07:17:31.872Z,28.71
2022-08-28T07:20:03.529Z,28.84
2022-08-28T07:22:32.037Z,28.88
2022-08-28T07:25:07.068Z,29.00
2022-08-28T07:27:36.713Z,29.02
2022-08-28T07:30:10.421Z,29.15
2022-08-28T07:32:38.157Z,29.31
2022-08-28T07:35:07.304Z,29.40
2022-08-28T07:37:35.625Z,29.51
2022-08-28T07:40:10.193Z,29.55
2022-08-28T07:42:58.166Z,29.71
2022-08-28T07:45:26.391Z,29.79
2022-08-28T07:47:55.984Z,29.72
2022-08-28T07:50:24.116Z,29.86
2022-08-28T07:52:53.510Z,30.06
2022-08-28T07:55:21.995Z,30.04
2022-08-28T07:57:52.048Z,30.25
2022-08-28T08:00:21.019Z,30.40
2022-08-28T08:02:49.912Z,30.56
2022-08-28T08:05:20.032Z,30.64
2022-08-28T08:07:49.098Z,30.68
2022-08-28T08:10:20.556Z,30.99
2022-08-28T08:12:49.702Z,31.09
2022-08-28T08:15:22.723Z,31.27
2022-08-28T08:17:51.988Z,31.39
2022-08-28T08:20:21.185Z,31.19
2022-08-28T08:22:51.014Z,31.48
2022-08-28T08:25:19.920Z,31.72
2022-08-28T08:27:51.376Z,31.87
2022-08-28T08:30:20.013Z,31.90
2022-08-28T08:32:48.806Z,32.16
2022-08-28T08:35:19.020Z,32.13
2022-08-28T08:37:47.970Z,32.07
2022-08-28T08:40:19.768Z,32.26
2022-08-28T08:42:54.092Z,32.38
2022-08-28T08:45:29.040Z,32.38
2022-08-28T08:47:57.936Z,32.54
2022-08-28T08:50:30.250Z,32.62
2022-08-28T08:53:18.972Z,32.75
2022-08-28T08:55:51.022Z,32.88
2022-08-28T09:01:31.378Z,33.17
2022-08-28T09:04:25.951Z,33.03
2022-08-28T09:07:08.461Z,33.38
2022-08-28T09:09:44.925Z,33.25
2022-08-28T09:12:18.582Z,33.45
2022-08-28T09:14:51.473Z,33.59
2022-08-28T09:17:27.879Z,33.39
2022-08-28T09:19:56.002Z,33.71
2022-08-28T09:22:25.165Z,33.78
2022-08-28T09:24:53.662Z,33.67
2022-08-28T09:27:28.865Z,33.91
2022-08-28T09:30:07.457Z,33.81
2022-08-28T09:32:44.642Z,34.15
2022-08-28T09:35:35.139Z,34.42
2022-08-28T09:38:27.802Z,34.14
2022-08-28T09:41:29.476Z,34.28
2022-08-28T09:43:57.478Z,34.56
2022-08-28T09:46:30.553Z,34.56
2022-08-28T09:49:14.687Z,34.80
2022-08-28T09:51:43.114Z,34.95
2022-08-28T09:54:24.190Z,35.04
2022-08-28T09:56:52.044Z,34.88
2022-08-28T09:59:23.151Z,34.75
2022-08-28T10:02:23.708Z,35.20
2022-08-28T10:04:56.762Z,35.19
2022-08-28T10:07:51.893Z,34.83
2022-08-28T10:10:44.313Z,34.91
2022-08-28T10:13:21.291Z,34.82
2022-08-28T10:16:15.319Z,34.96
2022-08-28T10:18:57.543Z,34.84
2022-08-28T10:21:51.326Z,34.99
2022-08-28T10:24:26.843Z,35.33
2022-08-28T10:27:31.888Z,35.46
2022-08-28T10:30:12.538Z,35.42
2022-08-28T10:33:08.898Z,35.61
2022-08-28T10:35:44.253Z,35.61
2022-08-28T10:38:17.216Z,35.36
2022-08-28T10:40:51.714Z,35.47
2022-08-28T10:43:48.166Z,35.61
2022-08-28T10:46:41.908Z,35.56
2022-08-28T10:49:43.907Z,35.49
2022-08-28T10:52:33.993Z,35.61
2022-08-28T10:55:08.051Z,35.63
2022-08-28T10:57:43.207Z,35.59
2022-08-28T11:00:18.789Z,35.55
2022-08-28T11:03:03.311Z,35.56
2022-08-28T11:05:53.499Z,35.53
2022-08-28T11:08:30.548Z,35.60
2022-08-28T11:11:00.766Z,35.71
2022-08-28T11:14:00.013Z,35.50
2022-08-28T11:16:30.468Z,35.21
2022-08-28T11:19:33.786Z,34.88
2022-08-28T11:22:20.225Z,34.99
2022-08-28T11:24:59.310Z,34.86
2022-08-28T11:27:36.940Z,34.75
2022-08-28T11:30:11.477Z,34.94
2022-08-28T11:32:51.308Z,34.86
2022-08-28T11:35:38.270Z,34.90
2022-08-28T11:38:06.527Z,34.91
2022-08-28T11:40:55.951Z,34.96
2022-08-28T11:43:24.017Z,34.95
2022-08-28T11:45:55.335Z,34.85
2022-08-28T11:48:23.401Z,34.96
2022-08-28T11:51:04.933Z,35.25
2022-08-28T11:53:54.850Z,35.21
2022-08-28T11:56:47.816Z,35.08
2022-08-28T11:59:25.511Z,35.05
2022-08-28T12:02:39.433Z,34.77
2022-08-28T12:05:15.069Z,35.10
2022-08-28T12:07:45.531Z,35.32
2022-08-28T12:10:23.071Z,35.22
2022-08-28T12:13:08.674Z,35.58
2022-08-28T12:15:39.296Z,35.73
2022-08-28T12:18:14.548Z,35.79
2022-08-28T12:20:51.451Z,36.16
2022-08-28T12:23:31.965Z,36.43
2022-08-28T12:26:07.794Z,35.63
2022-08-28T12:28:44.942Z,35.94
2022-08-28T12:31:44.798Z,35.89
2022-08-28T12:34:45.934Z,36.62
2022-08-28T12:37:39.515Z,37.20
2022-08-28T12:40:22.017Z,37.11
2022-08-28T12:43:15.194Z,37.36
2022-08-28T12:45:53.094Z,38.02
2022-08-28T12:48:34.133Z,38.32
2022-08-28T12:51:26.286Z,38.67
2022-08-28T12:53:58.309Z,38.83
2022-08-28T12:56:30.415Z,39.29
2022-08-28T12:59:27.588Z,38.22
2022-08-28T13:02:06.934Z,38.15
2022-08-28T13:04:52.221Z,38.18
2022-08-28T13:07:30.341Z,38.20
2022-08-28T13:10:18.883Z,37.81
2022-08-28T13:13:05.858Z,38.59
2022-08-28T13:15:49.279Z,38.72
2022-08-28T13:18:43.644Z,37.30
2022-08-28T13:21:17.618Z,37.34
2022-08-28T13:24:02.496Z,37.61
2022-08-28T13:26:34.226Z,36.89
2022-08-28T13:29:08.019Z,36.23
2022-08-28T13:31:43.225Z,36.57
2022-08-28T13:34:27.102Z,36.51
2022-08-28T13:37:14.714Z,36.69
2022-08-28T13:39:48.193Z,36.36
2022-08-28T13:42:18.322Z,35.53
2022-08-28T13:44:56.970Z,35.77
2022-08-28T13:47:25.656Z,35.59
2022-08-28T13:49:58.426Z,35.03
2022-08-28T13:52:42.822Z,35.08
2022-08-28T13:55:36.470Z,35.56
2022-08-28T13:58:28.829Z,35.89
2022-08-28T14:01:09.304Z,36.26
2022-08-28T14:03:44.602Z,36.57
2022-08-28T14:06:20.814Z,36.51
2022-08-28T14:09:28.139Z,36.31
2022-08-28T14:12:02.817Z,36.34
2022-08-28T14:14:35.639Z,35.68
2022-08-28T14:17:28.860Z,35.17
2022-08-28T14:20:06.555Z,34.67
2022-08-28T14:22:36.398Z,34.21
2022-08-28T14:25:07.744Z,33.97
2022-08-28T14:27:36.524Z,33.88
2022-08-28T14:30:09.968Z,33.85
2022-08-28T14:32:40.360Z,33.75
2022-08-28T14:35:09.121Z,33.79
2022-08-28T14:37:36.831Z,33.93
2022-08-28T14:40:06.105Z,34.06
2022-08-28T14:42:34.148Z,34.03
2022-08-28T14:45:01.993Z,34.01
2022-08-28T14:47:30.357Z,33.85
2022-08-28T14:49:58.683Z,33.77
2022-08-28T14:52:26.788Z,33.63
2022-08-28T14:54:54.756Z,33.54
2022-08-28T14:57:22.586Z,33.41
2022-08-28T14:59:50.610Z,33.47
2022-08-28T15:02:19.179Z,33.13
2022-08-28T15:04:47.044Z,33.17
2022-08-28T15:07:15.618Z,33.15
2022-08-28T15:09:44.092Z,33.12
2022-08-28T15:12:12.038Z,33.13
2022-08-28T15:14:40.564Z,33.08
2022-08-28T15:17:23.856Z,32.99
2022-08-28T15:20:02.754Z,32.94
2022-08-28T15:22:31.255Z,32.88
2022-08-28T15:24:59.138Z,32.89
2022-08-28T15:27:26.874Z,32.86
2022-08-28T15:29:55.555Z,32.82
2022-08-28T15:32:23.818Z,32.91
2022-08-28T15:34:52.696Z,32.77
2022-08-28T15:37:20.411Z,32.71
2022-08-28T15:40:07.525Z,32.66
2022-08-28T15:42:35.474Z,32.51
2022-08-28T15:45:03.134Z,32.44
2022-08-28T15:47:31.079Z,32.38
2022-08-28T15:49:59.282Z,32.27
2022-08-28T15:52:26.805Z,32.34
2022-08-28T15:54:57.063Z,32.20
2022-08-28T15:57:24.901Z,32.20
2022-08-28T15:59:52.889Z,31.94
2022-08-28T16:02:23.016Z,31.83
2022-08-28T16:04:51.869Z,31.76
2022-08-28T16:07:21.449Z,31.80
2022-08-28T16:09:49.491Z,31.69
2022-08-28T16:12:17.912Z,31.52
2022-08-28T16:14:45.571Z,31.53
2022-08-28T16:17:13.383Z,31.40
2022-08-28T16:19:42.741Z,31.35
2022-08-28T16:22:12.273Z,31.05
2022-08-28T16:24:40.014Z,30.86
2022-08-28T16:27:10.748Z,30.84
2022-08-28T16:29:42.928Z,30.75
2022-08-28T16:32:11.648Z,30.62
2022-08-28T16:34:40.132Z,30.34
2022-08-28T16:37:09.431Z,29.98
2022-08-28T16:39:37.354Z,30.02
2022-08-28T16:42:05.375Z,29.95
2022-08-28T16:44:33.656Z,29.85
2022-08-28T16:47:01.349Z,29.92
2022-08-28T16:49:30.880Z,29.70
2022-08-28T16:51:59.013Z,29.51
2022-08-28T16:54:26.831Z,29.45
2022-08-28T16:56:54.391Z,29.25
2022-08-28T16:59:23.377Z,29.24
2022-08-28T17:01:53.079Z,29.13
2022-08-28T17:04:22.226Z,29.11
2022-08-28T17:06:51.131Z,28.97
2022-08-28T17:09:19.883Z,28.96
2022-08-28T17:11:51.578Z,28.94
2022-08-28T17:14:23.311Z,28.83
2022-08-28T17:16:51.851Z,28.62
2022-08-28T17:19:21.183Z,28.50
2022-08-28T17:22:07.331Z,28.51
2022-08-28T17:24:36.114Z,28.41
2022-08-28T17:27:05.831Z,28.41
2022-08-28T17:29:37.667Z,28.33
2022-08-28T17:32:08.469Z,28.25
2022-08-28T17:34:38.009Z,28.09
2022-08-28T17:37:05.925Z,28.01
2022-08-28T17:39:33.455Z,27.93
2022-08-28T17:42:00.986Z,27.99
2022-08-28T17:44:28.661Z,28.00
2022-08-28T17:46:56.386Z,27.96
2022-08-28T17:49:24.147Z,27.73
2022-08-28T17:51:51.729Z,27.56
2022-08-28T17:54:22.069Z,27.53
2022-08-28T17:56:52.676Z,27.45
2022-08-28T17:59:22.473Z,27.54
2022-08-28T18:01:52.566Z,27.48
2022-08-28T18:04:25.075Z,27.37
2022-08-28T18:06:54.608Z,27.43
2022-08-28T18:09:23.935Z,27.40
2022-08-28T18:11:52.715Z,27.31
2022-08-28T18:14:21.331Z,27.29
2022-08-28T18:16:49.188Z,27.17
2022-08-28T18:19:17.129Z,27.16
2022-08-28T18:21:45.802Z,26.88
2022-08-28T18:24:14.656Z,26.87
2022-08-28T18:26:50.071Z,26.94
2022-08-28T18:29:18.069Z,27.03
2022-08-28T18:31:46.706Z,27.10
2022-08-28T18:34:14.678Z,27.17
2022-08-28T18:36:42.814Z,27.16
2022-08-28T18:39:10.847Z,27.21
2022-08-28T18:41:44.402Z,26.96
2022-08-28T18:44:14.319Z,26.81
2022-08-28T18:46:44.173Z,26.82
2022-08-28T18:49:12.294Z,26.91
2022-08-28T18:51:42.429Z,26.76
2022-08-28T18:54:13.276Z,26.83
2022-08-28T18:56:42.403Z,26.97
2022-08-28T18:59:10.774Z,27.00
2022-08-28T19:01:38.914Z,26.85
2022-08-28T19:04:07.319Z,26.75
2022-08-28T19:06:36.262Z,26.68
2022-08-28T19:09:05.718Z,26.71
2022-08-28T19:11:36.416Z,26.59
2022-08-28T19:14:04.949Z,26.42
2022-08-28T19:16:39.551Z,26.33
2022-08-28T19:19:07.209Z,26.32
2022-08-28T19:21:38.200Z,26.30
2022-08-28T19:24:05.996Z,26.34
2022-08-28T19:26:33.931Z,26.27
2022-08-28T19:29:03.207Z,26.20
2022-08-28T19:31:33.288Z,26.17
2022-08-28T19:34:00.970Z,26.25
2022-08-28T19:36:30.474Z,26.21
2022-08-28T19:38:58.758Z,26.23
2022-08-28T19:41:26.644Z,26.25
2022-08-28T19:43:54.491Z,26.38
2022-08-28T19:46:22.198Z,26.29
2022-08-28T19:48:51.166Z,26.22
2022-08-28T19:51:23.404Z,26.31
2022-08-28T19:53:58.724Z,26.24
2022-08-28T19:56:28.672Z,25.96
2022-08-28T19:58:59.440Z,25.93
2022-08-28T20:01:30.158Z,26.04
2022-08-28T20:03:59.623Z,25.82
2022-08-28T20:06:28.538Z,25.78
2022-08-28T20:08:56.205Z,25.75
2022-08-28T20:11:30.127Z,25.58
2022-08-28T20:14:04.583Z,25.44
2022-08-28T20:16:39.692Z,25.56
2022-08-28T20:19:10.500Z,25.57
2022-08-28T20:21:41.297Z,25.65
2022-08-28T20:24:13.067Z,25.50
2022-08-28T20:26:41.919Z,25.40
2022-08-28T20:29:10.766Z,25.30
2022-08-28T20:31:40.618Z,25.28
2022-08-28T20:34:11.771Z,25.40
2022-08-28T20:36:39.884Z,25.41
2022-08-28T20:39:09.593Z,25.46
2022-08-28T20:41:39.728Z,25.44
2022-08-28T20:44:10.273Z,25.33
2022-08-28T20:46:41.192Z,25.16
2022-08-28T20:49:14.087Z,25.00
2022-08-28T20:52:01.910Z,25.03
2022-08-28T20:54:37.433Z,25.06
2022-08-28T20:57:10.774Z,25.42
2022-08-28T20:59:41.595Z,25.20
2022-08-28T21:02:12.893Z,25.05
2022-08-28T21:04:44.345Z,25.17
2022-08-28T21:07:15.964Z,25.42
2022-08-28T21:10:05.610Z,25.46
2022-08-28T21:12:39.188Z,25.20
2022-08-28T21:15:09.717Z,25.16
2022-08-28T21:17:41.043Z,25.15
2022-08-28T21:20:12.851Z,24.96
2022-08-28T21:22:42.867Z,25.22
2022-08-28T21:25:11.907Z,25.39
2022-08-28T21:27:44.858Z,25.39
2022-08-28T21:30:15.249Z,25.44
2022-08-28T21:32:42.812Z,25.38
2022-08-28T21:35:13.147Z,25.52
2022-08-28T21:37:41.877Z,25.34
2022-08-28T21:40:13.833Z,25.02
2022-08-28T21:42:42.292Z,24.98
2022-08-28T21:45:12.269Z,24.78
2022-08-28T21:47:41.357Z,24.92
2022-08-28T21:50:10.906Z,25.13
2022-08-28T21:52:40.244Z,24.77
2022-08-28T21:55:12.262Z,24.82
2022-08-28T21:57:40.417Z,24.69
2022-08-28T22:00:20.020Z,24.43
2022-08-28T22:02:48.579Z,24.43
2022-08-28T22:05:17.559Z,24.67
2022-08-28T22:07:48.373Z,24.47
2022-08-28T22:10:16.421Z,24.47
2022-08-28T22:12:43.971Z,24.42
2022-08-28T22:15:12.938Z,24.18
2022-08-28T22:17:40.603Z,23.99
2022-08-28T22:20:08.943Z,24.25
2022-08-28T22:22:55.604Z,24.01
2022-08-28T22:25:23.327Z,24.18
2022-08-28T22:27:53.483Z,24.03
2022-08-28T22:30:21.600Z,24.00
2022-08-28T22:32:49.421Z,23.89
2022-08-28T22:35:17.469Z,23.78
2022-08-28T22:37:45.231Z,23.66
2022-08-28T22:40:13.786Z,23.46
2022-08-28T22:42:41.988Z,23.65
2022-08-28T22:45:10.420Z,23.78
2022-08-28T22:47:39.797Z,23.96
2022-08-28T22:50:07.771Z,23.95
2022-08-28T22:52:37.052Z,23.87
2022-08-28T22:55:08.751Z,23.74
2022-08-28T22:57:37.750Z,23.72
2022-08-28T23:00:09.515Z,23.75
2022-08-28T23:02:38.294Z,23.84
2022-08-28T23:05:06.263Z,23.72
2022-08-28T23:07:35.079Z,23.61
2022-08-28T23:10:02.845Z,23.47
2022-08-28T23:12:30.518Z,23.33
2022-08-28T23:14:58.013Z,23.35
2022-08-28T23:17:25.604Z,23.35
2022-08-28T23:19:53.577Z,23.19
2022-08-28T23:22:21.123Z,23.14
2022-08-28T23:24:48.951Z,23.06
2022-08-28T23:27:35.842Z,23.02
2022-08-28T23:30:06.119Z,23.15
2022-08-28T23:32:34.282Z,23.29
2022-08-28T23:39:30.081Z,23.08
2022-08-28T23:41:57.885Z,23.13
2022-08-28T23:44:25.577Z,23.00
2022-08-28T23:46:54.116Z,23.00
2022-08-28T23:49:26.729Z,23.00
2022-08-28T23:51:54.551Z,22.90
2022-08-28T23:54:22.443Z,22.84
2022-08-28T23:56:50.406Z,22.90
2022-08-28T23:59:21.311Z,22.86
